Time;durP1;ratioP1;P1;durP2;ratioP2;P2;SDS_P1;SDS_P2;PMS_P1;PMS_P2;Temp;Humidity;BMP_temperature;BMP_pressure;BME280_temperature;BME280_humidity;BME280_pressure;Samples;Min_cycle;Max_cycle;Signal;HPM_P1;HPM_P2
2020/12/01 00:02:14;;;;;;;17.23;3.25;;;7.90;90.90;;;;;;4979658;28;20039;-76
2020/12/01 00:04:40;;;;;;;16.83;3.08;;;7.90;89.80;;;;;;4982692;28;20382;-76
2020/12/01 00:07:06;;;;;;;11.30;2.38;;;7.90;89.50;;;;;;4993536;28;20106;-75
2020/12/01 00:09:31;;;;;;;13.85;3.03;;;7.80;89.00;;;;;;5000414;28;20038;-77
2020/12/01 00:11:57;;;;;;;17.08;2.78;;;7.80;88.90;;;;;;5002989;28;20053;-76
2020/12/01 00:14:22;;;;;;;15.13;3.00;;;7.70;89.30;;;;;;4996619;28;20034;-75
2020/12/01 00:16:48;;;;;;;16.20;3.85;;;7.70;89.40;;;;;;5029891;28;20039;-81
2020/12/01 00:19:14;;;;;;;16.52;2.55;;;7.60;89.80;;;;;;4978046;28;20043;-76
2020/12/01 00:21:39;;;;;;;15.48;2.47;;;7.50;89.60;;;;;;5019506;28;20035;-76
2020/12/01 00:24:06;;;;;;;10.77;2.72;;;7.50;90.10;;;;;;5029263;28;20102;-77
2020/12/01 00:26:31;;;;;;;11.85;2.20;;;7.40;89.40;;;;;;4981309;28;20435;-79
2020/12/01 00:28:57;;;;;;;9.50;1.98;;;7.40;89.40;;;;;;4973848;28;20039;-75
2020/12/01 00:31:23;;;;;;;12.35;2.20;;;7.30;90.10;;;;;;5017873;28;20066;-75
2020/12/01 00:33:48;;;;;;;12.82;2.90;;;7.30;90.40;;;;;;4981417;28;20381;-76
2020/12/01 00:36:14;;;;;;;10.38;2.20;;;7.20;90.70;;;;;;4982689;28;20034;-76
2020/12/01 00:38:41;;;;;;;11.32;2.40;;;7.20;90.80;;;;;;4986418;28;20026;-76
2020/12/01 00:41:07;;;;;;;12.23;2.13;;;7.20;91.00;;;;;;5005010;28;20115;-78
2020/12/01 00:43:32;;;;;;;13.85;2.15;;;7.20;91.20;;;;;;4997921;28;20362;-78
2020/12/01 00:45:58;;;;;;;9.20;2.13;;;7.20;91.10;;;;;;5008607;28;20041;-76
2020/12/01 00:48:24;;;;;;;12.40;2.58;;;7.10;89.80;;;;;;4978128;28;20038;-77
2020/12/01 00:50:49;;;;;;;12.77;2.78;;;7.00;89.40;;;;;;4983738;28;20038;-76
2020/12/01 00:53:16;;;;;;;9.95;2.40;;;6.80;88.60;;;;;;4969299;28;20100;-77
2020/12/01 00:55:41;;;;;;;15.25;2.63;;;6.90;88.70;;;;;;5011596;28;20501;-77
2020/12/01 00:58:07;;;;;;;11.63;2.30;;;6.80;88.90;;;;;;4976774;28;20039;-77
2020/12/01 01:00:33;;;;;;;12.50;2.35;;;6.90;89.10;;;;;;4978310;28;20107;-75
2020/12/01 01:02:59;;;;;;;16.58;3.28;;;6.90;89.30;;;;;;4994929;28;20122;-76
2020/12/01 01:05:25;;;;;;;14.32;3.08;;;6.90;89.60;;;;;;4988743;28;20062;-75
2020/12/01 01:07:51;;;;;;;20.02;3.10;;;6.90;89.50;;;;;;4979770;28;20033;-76
2020/12/01 01:10:28;;;;;;;15.95;3.15;;;7.00;89.10;;;;;;4999878;28;20042;-77
2020/12/01 01:12:54;;;;;;;21.52;3.83;;;7.00;89.20;;;;;;4985018;28;20026;-75
2020/12/01 01:15:23;;;;;;;22.85;4.68;;;7.10;89.20;;;;;;4984931;28;20490;-76
2020/12/01 01:17:48;;;;;;;14.32;3.53;;;7.00;89.10;;;;;;5019673;28;20058;-76
2020/12/01 01:20:14;;;;;;;22.42;3.70;;;6.90;89.40;;;;;;5005976;28;20171;-77
2020/12/01 01:22:40;;;;;;;24.80;5.05;;;6.90;89.30;;;;;;4982282;28;20030;-76
2020/12/01 01:25:06;;;;;;;20.90;4.03;;;6.90;89.00;;;;;;4997974;28;20084;-79
2020/12/01 01:27:32;;;;;;;20.02;4.22;;;6.90;89.10;;;;;;4974071;28;20647;-76
2020/12/01 01:29:57;;;;;;;24.73;3.65;;;6.90;89.30;;;;;;5008547;28;20047;-75
2020/12/01 01:32:23;;;;;;;21.58;3.50;;;6.80;89.50;;;;;;5017100;28;20051;-76
2020/12/01 01:34:49;;;;;;;21.73;3.95;;;6.80;89.70;;;;;;4990578;28;20421;-76
2020/12/01 01:37:14;;;;;;;23.38;3.90;;;6.70;89.70;;;;;;4979252;28;20034;-76
2020/12/01 01:39:40;;;;;;;17.83;3.63;;;6.80;89.60;;;;;;5037614;28;20073;-75
2020/12/01 01:42:08;;;;;;;19.25;3.83;;;6.80;89.40;;;;;;4993398;28;20031;-76
2020/12/01 01:44:33;;;;;;;28.52;4.30;;;6.90;89.00;;;;;;5033392;28;20047;-76
2020/12/01 01:47:11;;;;;;;24.15;4.82;;;7.00;88.50;;;;;;5011556;28;20028;-76
2020/12/01 01:49:40;;;;;;;28.70;4.70;;;7.00;88.50;;;;;;4998638;28;20042;-76
2020/12/01 01:52:15;;;;;;;24.08;5.03;;;7.00;88.50;;;;;;5006448;28;20104;-76
2020/12/01 01:54:44;;;;;;;20.73;4.07;;;7.10;88.10;;;;;;5009968;28;20034;-76
2020/12/01 01:57:10;;;;;;;22.45;3.95;;;7.10;88.00;;;;;;5001027;28;20038;-76
2020/12/01 01:59:37;;;;;;;22.30;3.88;;;7.10;88.20;;;;;;5032938;28;20053;-76
2020/12/01 02:02:02;;;;;;;16.27;3.30;;;7.20;87.80;;;;;;5006027;28;20385;-76
2020/12/01 02:04:29;;;;;;;17.55;4.07;;;7.20;87.70;;;;;;5017870;28;20030;-75
2020/12/01 02:07:00;;;;;;;17.98;3.47;;;7.30;87.70;;;;;;5034967;28;20020;-75
2020/12/01 02:09:34;;;;;;;14.20;3.70;;;7.30;88.30;;;;;;4997305;28;20127;-75
2020/12/01 02:12:03;;;;;;;15.88;3.67;;;7.20;88.50;;;;;;4992430;28;20099;-75
2020/12/01 02:14:37;;;;;;;17.90;3.30;;;7.10;89.10;;;;;;5005500;28;20610;-75
2020/12/01 02:17:19;;;;;;;13.95;2.45;;;7.10;89.70;;;;;;4990955;28;20389;-76
2020/12/01 02:19:47;;;;;;;14.48;3.83;;;7.10;89.80;;;;;;5024783;28;20235;-76
2020/12/01 02:22:15;;;;;;;16.05;2.90;;;7.10;89.80;;;;;;5000026;28;20045;-76
2020/12/01 02:24:41;;;;;;;15.18;3.15;;;7.00;89.90;;;;;;5005476;28;20026;-76
2020/12/01 02:27:07;;;;;;;13.30;2.50;;;7.00;89.70;;;;;;4987603;28;20435;-76
2020/12/01 02:29:35;;;;;;;16.42;2.70;;;6.90;90.10;;;;;;4998509;28;20050;-76
2020/12/01 02:32:02;;;;;;;14.00;3.13;;;6.90;90.50;;;;;;5021622;28;20045;-75
2020/12/01 02:34:33;;;;;;;17.83;2.92;;;6.90;90.80;;;;;;5022288;28;20468;-76
2020/12/01 02:37:00;;;;;;;20.70;3.25;;;6.90;90.90;;;;;;5002410;28;20056;-80
2020/12/01 02:39:28;;;;;;;22.88;3.25;;;6.90;91.40;;;;;;5061734;28;20504;-75
2020/12/01 02:41:56;;;;;;;16.15;4.22;;;7.00;91.50;;;;;;5034385;28;20045;-77
2020/12/01 02:44:22;;;;;;;14.07;2.97;;;7.00;91.50;;;;;;4990677;28;20038;-75
2020/12/01 02:46:47;;;;;;;17.90;3.05;;;7.00;91.70;;;;;;5033461;28;20444;-77
2020/12/01 02:49:13;;;;;;;16.48;3.20;;;7.10;91.90;;;;;;4991140;28;20165;-76
2020/12/01 02:51:39;;;;;;;14.68;3.30;;;7.10;92.00;;;;;;4994962;28;20114;-78
2020/12/01 02:54:04;;;;;;;21.77;4.68;;;7.10;92.00;;;;;;5000159;28;20041;-75
2020/12/01 02:56:30;;;;;;;22.90;4.00;;;7.10;92.00;;;;;;4999530;28;20026;-75
2020/12/01 02:58:56;;;;;;;21.73;4.63;;;7.10;91.90;;;;;;5002025;28;20039;-78
2020/12/01 03:01:22;;;;;;;20.67;4.32;;;7.10;91.80;;;;;;5019785;28;20043;-75
2020/12/01 03:03:48;;;;;;;23.40;3.40;;;7.20;91.70;;;;;;5021047;27;20802;-76
2020/12/01 03:06:18;;;;;;;21.25;4.07;;;7.20;91.70;;;;;;5025108;28;20039;-75
2020/12/01 03:08:44;;;;;;;15.68;3.33;;;7.20;91.70;;;;;;5025197;28;20030;-77
2020/12/01 03:11:10;;;;;;;14.07;3.60;;;7.30;91.60;;;;;;5056992;28;20033;-76
2020/12/01 03:13:37;;;;;;;15.85;3.25;;;7.30;91.60;;;;;;5045443;28;20047;-76
2020/12/01 03:16:08;;;;;;;20.40;3.72;;;7.30;91.00;;;;;;4994412;28;20042;-77
2020/12/01 03:18:37;;;;;;;17.00;3.88;;;7.40;90.90;;;;;;5009957;28;20032;-76
2020/12/01 03:21:04;;;;;;;21.67;3.60;;;7.40;91.10;;;;;;5039249;28;20059;-76
2020/12/01 03:23:29;;;;;;;21.05;3.38;;;7.40;91.30;;;;;;4984894;28;20023;-76
2020/12/01 03:25:55;;;;;;;21.90;3.45;;;7.40;91.30;;;;;;5021321;28;20045;-76
2020/12/01 03:28:21;;;;;;;24.63;4.65;;;7.40;91.40;;;;;;5068775;28;20042;-76
2020/12/01 03:30:47;;;;;;;20.88;3.60;;;7.40;91.50;;;;;;4999050;28;20038;-75
2020/12/01 03:33:12;;;;;;;21.00;3.55;;;7.40;91.70;;;;;;4988473;28;20447;-75
2020/12/01 03:35:38;;;;;;;25.13;5.43;;;7.40;91.60;;;;;;5065321;28;20030;-76
2020/12/01 03:38:04;;;;;;;31.02;4.78;;;7.40;91.60;;;;;;5008725;28;20065;-76
2020/12/01 03:40:29;;;;;;;25.80;4.53;;;7.50;91.80;;;;;;5024403;28;20038;-75
2020/12/01 03:42:55;;;;;;;21.65;4.32;;;7.40;91.90;;;;;;5020139;28;20553;-75
2020/12/01 03:45:21;;;;;;;23.85;4.40;;;7.40;92.20;;;;;;5036222;28;20083;-76
2020/12/01 03:47:46;;;;;;;26.45;4.93;;;7.40;92.30;;;;;;5031215;28;20032;-76
2020/12/01 03:50:13;;;;;;;19.42;4.28;;;7.40;92.40;;;;;;5013332;28;20046;-77
2020/12/01 03:52:39;;;;;;;24.90;4.93;;;7.50;92.50;;;;;;5030293;28;20060;-76
2020/12/01 03:55:07;;;;;;;20.85;4.45;;;7.40;92.60;;;;;;5011782;28;20543;-76
2020/12/01 03:57:40;;;;;;;24.23;5.28;;;7.40;92.50;;;;;;4988371;28;20045;-76
2020/12/01 04:00:08;;;;;;;21.20;3.97;;;7.40;92.50;;;;;;4999335;27;20054;-77
2020/12/01 04:02:34;;;;;;;25.70;4.53;;;7.50;92.30;;;;;;5021805;28;20038;-77
2020/12/01 04:05:00;;;;;;;22.83;5.13;;;7.40;92.10;;;;;;5028475;28;20359;-77
2020/12/01 04:07:26;;;;;;;27.70;4.75;;;7.50;91.60;;;;;;4999614;28;20038;-76
2020/12/01 04:09:51;;;;;;;24.33;4.55;;;7.50;91.30;;;;;;5007001;28;20149;-76
2020/12/01 04:12:17;;;;;;;23.20;4.30;;;7.50;91.20;;;;;;5017554;28;20042;-76
2020/12/01 04:14:42;;;;;;;25.95;4.45;;;7.60;91.00;;;;;;4998755;28;20038;-76
2020/12/01 04:17:08;;;;;;;20.85;4.40;;;7.60;91.20;;;;;;5018883;28;20058;-76
2020/12/01 04:19:34;;;;;;;21.55;4.63;;;7.60;91.40;;;;;;5029539;28;20046;-75
2020/12/01 04:21:59;;;;;;;26.67;4.55;;;7.60;91.30;;;;;;5012624;28;20050;-75
2020/12/01 04:24:25;;;;;;;21.98;4.05;;;7.60;91.30;;;;;;5002185;28;20050;-76
2020/12/01 04:26:50;;;;;;;22.67;4.55;;;7.60;91.10;;;;;;5054279;28;20031;-76
2020/12/01 04:29:16;;;;;;;22.98;4.25;;;7.60;90.70;;;;;;4998415;28;20466;-76
2020/12/01 04:31:41;;;;;;;19.58;3.67;;;7.60;90.60;;;;;;4997215;28;20038;-76
2020/12/01 04:34:07;;;;;;;21.08;3.47;;;7.60;90.70;;;;;;4995763;28;20415;-77
2020/12/01 04:36:33;;;;;;;22.45;4.38;;;7.60;90.80;;;;;;5007413;28;20384;-76
2020/12/01 04:38:58;;;;;;;23.67;4.05;;;7.70;90.60;;;;;;5018798;28;20046;-80
2020/12/01 04:41:25;;;;;;;24.25;5.05;;;7.70;90.70;;;;;;5019780;28;20095;-77
2020/12/01 04:43:57;;;;;;;22.80;3.53;;;7.60;90.90;;;;;;5019661;28;20042;-80
2020/12/01 04:46:27;;;;;;;19.13;3.58;;;7.60;90.70;;;;;;4996809;28;20034;-75
2020/12/01 04:49:04;;;;;;;15.85;3.40;;;7.60;90.20;;;;;;5008870;28;20053;-77
2020/12/01 04:51:38;;;;;;;16.92;3.15;;;7.60;90.20;;;;;;4998418;28;20030;-75
2020/12/01 04:54:40;;;;;;;12.70;3.10;;;7.60;90.40;;;;;;4998185;28;20038;-79
2020/12/01 04:57:17;;;;;;;22.55;3.75;;;7.60;90.30;;;;;;5017391;28;20055;-76
2020/12/01 05:00:21;;;;;;;18.30;3.58;;;7.60;90.70;;;;;;5010914;28;20042;-76
2020/12/01 05:02:50;;;;;;;21.45;4.20;;;7.60;90.90;;;;;;5000527;27;20042;-76
2020/12/01 05:09:03;;;;;;;18.15;3.65;;;7.60;91.60;;;;;;5032196;28;20506;-76
2020/12/01 05:11:42;;;;;;;20.88;4.45;;;7.60;91.80;;;;;;4984158;28;20043;-76
2020/12/01 05:14:18;;;;;;;23.77;3.90;;;7.60;91.80;;;;;;4978041;28;20084;-76
2020/12/01 05:16:49;;;;;;;28.70;4.90;;;7.70;91.50;;;;;;4978963;28;20674;-77
2020/12/01 05:19:37;;;;;;;20.98;3.88;;;7.70;91.50;;;;;;4972308;28;20030;-76
2020/12/01 05:22:03;;;;;;;28.27;4.43;;;7.80;91.60;;;;;;4977954;28;20049;-76
2020/12/01 05:24:40;;;;;;;29.15;4.93;;;7.70;91.80;;;;;;4992403;28;20030;-75
2020/12/01 05:27:17;;;;;;;27.50;4.63;;;7.70;92.00;;;;;;4981114;28;20043;-77
2020/12/01 05:29:42;;;;;;;21.52;4.93;;;7.70;92.10;;;;;;4973416;28;20104;-77
2020/12/01 05:32:08;;;;;;;33.13;5.03;;;7.60;92.30;;;;;;4977638;28;20039;-77
2020/12/01 05:34:34;;;;;;;31.15;5.65;;;7.70;92.10;;;;;;4971719;28;20381;-75
2020/12/01 05:37:05;;;;;;;27.65;4.68;;;7.70;92.00;;;;;;4977180;28;20034;-76
2020/12/01 05:39:34;;;;;;;34.25;6.10;;;7.80;91.10;;;;;;4975215;28;20062;-75
2020/12/01 05:42:05;;;;;;;23.80;4.15;;;7.90;90.30;;;;;;4970635;28;20108;-75
2020/12/01 05:44:33;;;;;;;32.50;5.65;;;8.10;89.20;;;;;;4977847;28;20030;-76
2020/12/01 05:47:16;;;;;;;30.08;4.80;;;8.10;88.80;;;;;;4976600;28;20031;-76
2020/12/01 05:50:03;;;;;;;24.45;4.60;;;8.20;87.50;;;;;;5040546;28;20045;-75
2020/12/01 05:52:40;;;;;;;23.50;4.15;;;8.10;87.80;;;;;;5014980;28;20468;-76
2020/12/01 05:55:17;;;;;;;26.38;4.35;;;8.20;87.30;;;;;;5017926;28;20036;-76
2020/12/01 05:57:54;;;;;;;23.70;4.28;;;8.20;87.00;;;;;;5044097;28;20041;-76
2020/12/01 06:00:24;;;;;;;24.85;4.80;;;8.20;87.40;;;;;;5021598;28;20035;-80
2020/12/01 06:03:09;;;;;;;21.35;4.68;;;8.20;87.40;;;;;;4976914;28;20304;-76
2020/12/01 06:05:38;;;;;;;30.98;5.55;;;8.30;87.20;;;;;;5036688;28;20045;-78
2020/12/01 06:08:31;;;;;;;24.25;5.00;;;8.20;87.50;;;;;;4992275;28;20039;-79
2020/12/01 06:11:16;;;;;;;24.75;5.60;;;8.30;87.50;;;;;;4984990;28;20816;-77
2020/12/01 06:13:46;;;;;;;29.52;5.55;;;8.30;87.50;;;;;;4975859;28;20034;-78
2020/12/01 06:16:26;;;;;;;22.50;4.10;;;8.30;88.00;;;;;;5012338;28;20042;-76
2020/12/01 06:19:20;;;;;;;26.10;4.97;;;8.20;88.30;;;;;;4974710;28;20054;-78
2020/12/01 06:22:05;;;;;;;24.58;5.05;;;8.20;88.50;;;;;;5053366;28;20050;-78
2020/12/01 06:24:54;;;;;;;27.65;4.82;;;8.20;88.40;;;;;;4973127;28;20046;-79
2020/12/01 06:27:38;;;;;;;36.28;6.20;;;8.20;88.20;;;;;;4978599;28;20054;-77
2020/12/01 06:30:15;;;;;;;24.50;4.40;;;8.30;87.70;;;;;;4995149;28;20031;-77
2020/12/01 06:32:56;;;;;;;28.30;6.05;;;8.30;86.90;;;;;;4988108;28;20035;-77
2020/12/01 06:35:50;;;;;;;25.55;5.32;;;8.40;85.80;;;;;;4976233;28;20050;-76
2020/12/01 06:38:42;;;;;;;25.42;6.00;;;8.40;86.00;;;;;;4984393;28;20040;-76
2020/12/01 06:41:12;;;;;;;25.23;4.97;;;8.40;85.40;;;;;;4984275;28;20058;-76
2020/12/01 06:43:46;;;;;;;27.10;5.13;;;8.40;85.80;;;;;;4988111;28;20034;-77
2020/12/01 06:46:42;;;;;;;25.05;4.88;;;8.40;86.10;;;;;;4987112;28;20034;-76
2020/12/01 06:49:14;;;;;;;26.85;5.50;;;8.40;86.30;;;;;;4982549;28;20166;-82
2020/12/01 06:51:45;;;;;;;31.45;5.60;;;8.30;86.50;;;;;;4988209;28;20100;-79
2020/12/01 06:54:12;;;;;;;24.88;5.65;;;8.40;86.40;;;;;;5029492;28;20410;-79
2020/12/01 06:56:38;;;;;;;28.30;6.03;;;8.40;86.70;;;;;;5033330;28;20062;-76
2020/12/01 06:59:10;;;;;;;27.30;5.22;;;8.40;86.80;;;;;;4991155;28;20065;-76
2020/12/01 07:01:38;;;;;;;27.00;5.65;;;8.40;86.70;;;;;;5003628;28;20032;-77
2020/12/01 07:04:12;;;;;;;31.38;5.80;;;8.40;87.00;;;;;;4990696;28;20030;-76
2020/12/01 07:06:56;;;;;;;36.47;6.35;;;8.40;87.10;;;;;;4982158;28;20381;-77
2020/12/01 07:09:27;;;;;;;22.80;5.78;;;8.40;87.20;;;;;;4993693;28;20379;-77
2020/12/01 07:12:04;;;;;;;22.25;5.10;;;8.30;87.60;;;;;;4986872;28;20030;-79
2020/12/01 07:14:38;;;;;;;35.05;5.82;;;8.30;87.90;;;;;;4971403;28;20038;-78
2020/12/01 07:17:35;;;;;;;26.35;4.30;;;8.20;88.10;;;;;;4974371;28;20038;-78
2020/12/01 07:20:13;;;;;;;24.90;5.22;;;8.20;88.00;;;;;;4969525;28;20477;-77
2020/12/01 07:22:55;;;;;;;28.40;5.50;;;8.20;88.00;;;;;;4990665;28;20026;-77
2020/12/01 07:25:44;;;;;;;25.92;5.38;;;8.10;88.30;;;;;;4986094;28;20069;-77
2020/12/01 07:28:33;;;;;;;25.17;5.07;;;8.10;87.90;;;;;;4994851;28;20030;-78
2020/12/01 07:31:03;;;;;;;26.38;5.00;;;8.10;87.90;;;;;;4993774;28;20071;-78
2020/12/01 07:33:32;;;;;;;24.38;4.88;;;8.10;87.80;;;;;;4969945;28;20053;-73
2020/12/01 07:36:10;;;;;;;25.33;5.35;;;8.10;87.60;;;;;;4969672;28;20651;-72
2020/12/01 07:38:42;;;;;;;22.15;4.97;;;8.10;87.60;;;;;;4987038;28;20522;-73
2020/12/01 07:41:23;;;;;;;27.52;4.47;;;8.10;87.80;;;;;;4983963;28;20117;-74
2020/12/01 07:44:09;;;;;;;28.88;4.78;;;8.10;88.10;;;;;;4983831;28;20084;-78
2020/12/01 07:49:16;;;;;;;27.50;6.13;;;8.10;88.10;;;;;;5002679;27;20033;-73
2020/12/01 07:51:42;;;;;;;29.42;5.13;;;8.10;88.40;;;;;;4989524;28;20343;-72
2020/12/01 07:54:08;;;;;;;25.90;4.70;;;8.10;88.50;;;;;;4990570;27;20040;-72
2020/12/01 07:56:38;;;;;;;20.30;5.70;;;8.00;88.90;;;;;;4990262;28;20026;-73
2020/12/01 07:59:13;;;;;;;26.83;4.53;;;7.90;89.40;;;;;;4984933;28;20066;-77
2020/12/01 08:01:40;;;;;;;;;;;7.80;89.90;;;;;;4976044;28;20088;-74
2020/12/01 08:04:12;;;;;;;23.63;4.05;;;7.80;89.90;;;;;;5025192;28;19910;-73
2020/12/01 08:06:39;;;;;;;28.27;5.40;;;7.80;89.90;;;;;;5035288;28;20127;-72
2020/12/01 08:09:21;;;;;;;21.42;5.03;;;7.80;89.70;;;;;;5036804;28;20098;-75
2020/12/01 08:11:50;;;;;;;25.17;5.68;;;7.90;89.00;;;;;;5004373;28;20046;-73
2020/12/01 08:14:17;;;;;;;26.48;5.38;;;8.00;88.60;;;;;;5023496;28;20046;-72
2020/12/01 08:16:43;;;;;;;23.45;4.18;;;8.10;88.00;;;;;;5012784;28;20036;-73
2020/12/01 08:19:12;;;;;;;27.70;5.10;;;8.20;87.00;;;;;;4997938;28;20045;-73
2020/12/01 08:21:41;;;;;;;22.45;4.40;;;8.20;86.80;;;;;;4994123;28;20064;-74
2020/12/01 08:24:13;;;;;;;24.48;4.63;;;8.20;86.80;;;;;;5029439;28;20034;-74
2020/12/01 08:26:40;;;;;;;21.65;3.92;;;8.20;87.30;;;;;;5002089;28;20032;-75
2020/12/01 08:29:11;;;;;;;24.48;4.82;;;8.20;87.40;;;;;;5003684;28;20030;-76
2020/12/01 08:32:21;;;;;;;27.95;4.80;;;8.20;87.50;;;;;;4992103;28;20560;-73
2020/12/01 08:35:03;;;;;;;22.60;4.45;;;8.20;87.70;;;;;;4954051;28;20028;-72
2020/12/01 08:38:01;;;;;;;18.92;4.53;;;8.20;87.60;;;;;;5015351;28;20031;-73
2020/12/01 08:40:37;;;;;;;24.42;4.13;;;8.20;86.80;;;;;;5033954;28;20076;-72
2020/12/01 08:43:15;;;;;;;23.35;4.20;;;8.30;87.00;;;;;;4998265;28;20545;-75
2020/12/01 08:46:04;;;;;;;24.35;5.03;;;8.30;86.60;;;;;;4983919;28;20027;-73
2020/12/01 08:48:38;;;;;;;24.05;4.32;;;8.40;86.00;;;;;;4985406;28;20065;-72
2020/12/01 08:51:27;;;;;;;22.48;4.43;;;8.40;86.20;;;;;;4989529;28;20120;-72
2020/12/01 08:54:13;;;;;;;20.23;4.85;;;8.30;85.80;;;;;;5019631;28;20050;-74
2020/12/01 08:56:48;;;;;;;24.17;3.95;;;8.40;85.20;;;;;;4973204;28;20026;-71
2020/12/01 08:59:15;;;;;;;;;;;8.30;85.20;;;;;;4975210;28;20046;-72
2020/12/01 09:01:42;;;;;;;23.33;4.32;;;8.40;84.70;;;;;;4983925;28;19921;-71
2020/12/01 09:04:27;;;;;;;18.27;3.60;;;8.30;85.00;;;;;;4981484;28;20030;-72
2020/12/01 09:06:56;;;;;;;;;;;8.30;85.70;;;;;;4971970;28;20077;-72
2020/12/01 09:09:25;;;;;;;18.67;3.85;;;8.30;86.60;;;;;;4975390;28;20000;-73
2020/12/01 09:12:05;;;;;;;24.05;4.82;;;8.30;87.00;;;;;;4980813;28;20355;-72
2020/12/01 09:17:51;;;;;;;20.25;4.18;;;8.30;87.70;;;;;;4973612;28;20125;-74
2020/12/01 09:23:20;;;;;;;23.85;5.38;;;8.40;87.40;;;;;;4975279;28;20362;-77
2020/12/01 09:25:47;;;;;;;34.45;7.00;;;8.50;86.80;;;;;;4972731;28;20031;-71
2020/12/01 09:28:20;;;;;;;30.60;5.68;;;8.40;87.00;;;;;;4975236;28;20043;-72
2020/12/01 09:30:46;;;;;;;18.23;4.00;;;8.50;86.50;;;;;;4982804;28;20054;-73
2020/12/01 09:33:22;;;;;;;19.27;5.40;;;8.60;86.40;;;;;;4972050;28;20053;-72
2020/12/01 09:35:49;;;;;;;28.60;6.72;;;8.60;86.50;;;;;;4969784;28;20084;-74
2020/12/01 09:38:16;;;;;;;19.50;5.43;;;8.60;86.10;;;;;;4976881;28;20035;-72
2020/12/01 09:40:44;;;;;;;24.00;5.93;;;8.60;85.80;;;;;;4971339;28;20059;-71
2020/12/01 09:45:56;;;;;;;24.02;5.50;;;8.70;85.30;;;;;;4978090;28;20380;-72
2020/12/01 09:48:37;;;;;;;26.00;5.32;;;8.90;85.30;;;;;;4969870;28;20035;-72
2020/12/01 09:51:04;;;;;;;18.40;3.97;;;8.90;84.10;;;;;;4979369;28;20437;-71
2020/12/01 09:53:39;;;;;;;26.45;5.07;;;9.00;82.70;;;;;;4972096;28;20050;-72
2020/12/01 09:56:15;;;;;;;23.92;5.93;;;9.10;81.40;;;;;;4976427;28;20042;-71
2020/12/01 10:27:50;;;;;;;21.05;4.97;;;9.40;80.30;;;;;;4981011;28;20049;-74
2020/12/01 10:37:34;;;;;;;29.08;6.60;;;9.50;81.40;;;;;;4996685;28;20058;-71
2020/12/01 10:40:00;;;;;;;28.08;5.75;;;9.60;81.60;;;;;;5020758;28;20071;-71
2020/12/01 10:42:26;;;;;;;26.42;6.03;;;9.60;81.30;;;;;;5037102;28;20513;-71
2020/12/01 10:44:51;;;;;;;24.85;6.15;;;9.60;81.60;;;;;;5031123;28;20025;-74
2020/12/01 10:47:17;;;;;;;23.02;4.55;;;9.50;81.00;;;;;;4988555;28;20047;-74
2020/12/01 10:49:42;;;;;;;18.98;5.25;;;9.60;81.20;;;;;;5017746;28;20032;-73
2020/12/01 10:52:08;;;;;;;24.20;5.65;;;9.60;81.00;;;;;;4995286;28;20034;-79
2020/12/01 10:54:34;;;;;;;23.63;6.32;;;9.60;80.70;;;;;;4992386;28;20030;-73
2020/12/01 10:57:00;;;;;;;20.75;5.00;;;9.70;81.00;;;;;;5023289;28;20113;-71
2020/12/01 10:59:26;;;;;;;27.52;6.78;;;9.80;79.80;;;;;;4992713;28;20473;-71
2020/12/01 11:01:52;;;;;;;30.92;9.90;;;9.80;80.00;;;;;;5014969;28;20066;-73
2020/12/01 11:04:20;;;;;;;22.83;6.15;;;9.90;79.80;;;;;;5036772;28;20028;-73
2020/12/01 11:06:46;;;;;;;28.83;5.60;;;9.90;78.80;;;;;;5047456;28;20033;-80
2020/12/01 11:09:13;;;;;;;25.35;6.28;;;10.00;78.20;;;;;;5057842;28;20123;-74
2020/12/01 11:11:40;;;;;;;20.05;4.60;;;10.10;77.10;;;;;;5019397;28;20525;-76
2020/12/01 11:14:07;;;;;;;21.58;4.80;;;10.10;76.80;;;;;;5018539;28;20043;-77
2020/12/01 11:16:32;;;;;;;14.50;4.13;;;9.90;77.50;;;;;;5030051;28;20048;-74
2020/12/01 11:18:58;;;;;;;15.32;3.47;;;9.90;76.30;;;;;;4994610;28;20023;-75
2020/12/01 11:21:24;;;;;;;24.73;4.93;;;9.80;77.00;;;;;;5017631;28;20131;-75
2020/12/01 11:23:50;;;;;;;19.92;5.10;;;9.70;77.60;;;;;;5018094;28;20023;-73
2020/12/01 11:26:20;;;;;;;24.67;4.95;;;9.80;78.00;;;;;;5007085;28;20065;-75
2020/12/01 11:28:50;;;;;;;22.20;4.70;;;9.80;78.20;;;;;;4987591;28;20052;-73
2020/12/01 11:31:19;;;;;;;20.75;4.35;;;10.10;78.60;;;;;;5002799;28;20038;-71
2020/12/01 11:34:01;;;;;;;26.88;4.82;;;10.10;78.10;;;;;;5075385;28;20122;-71
2020/12/01 11:36:27;;;;;;;19.55;4.25;;;10.30;77.20;;;;;;5056399;28;20033;-73
2020/12/01 11:38:53;;;;;;;20.70;4.70;;;10.40;77.10;;;;;;5009688;28;20042;-71
2020/12/01 11:41:19;;;;;;;21.38;4.50;;;10.30;76.40;;;;;;5020762;28;20047;-75
2020/12/01 11:43:45;;;;;;;20.83;4.63;;;10.20;76.10;;;;;;5000357;28;20042;-75
2020/12/01 11:46:10;;;;;;;24.70;6.55;;;10.20;77.00;;;;;;4973328;28;20035;-72
2020/12/01 11:48:36;;;;;;;20.17;5.45;;;10.30;77.50;;;;;;4968216;28;20148;-71
2020/12/01 11:51:02;;;;;;;20.13;3.72;;;10.40;77.20;;;;;;4966957;28;20052;-71
2020/12/01 11:53:28;;;;;;;27.95;5.13;;;10.40;75.50;;;;;;4968054;28;20043;-72
2020/12/01 11:55:53;;;;;;;28.23;5.60;;;10.40;76.70;;;;;;4969117;28;20029;-71
2020/12/01 11:58:19;;;;;;;23.90;5.18;;;10.50;76.60;;;;;;4967544;28;20710;-71
2020/12/01 12:00:45;;;;;;;23.48;4.72;;;10.50;76.10;;;;;;4975122;28;20064;-79
2020/12/01 12:03:10;;;;;;;18.08;3.70;;;10.40;75.20;;;;;;4965606;28;20039;-75
2020/12/01 12:05:36;;;;;;;20.63;4.25;;;10.40;75.00;;;;;;4971361;28;20033;-78
2020/12/01 12:08:02;;;;;;;15.98;4.00;;;10.40;74.20;;;;;;4973090;28;20515;-73
2020/12/01 12:10:28;;;;;;;19.67;3.83;;;10.40;73.80;;;;;;4971160;28;20202;-73
2020/12/01 12:12:53;;;;;;;14.05;3.15;;;10.40;73.70;;;;;;4969903;28;20042;-75
2020/12/01 12:15:19;;;;;;;22.98;6.03;;;10.40;71.00;;;;;;4970401;28;20054;-72
2020/12/01 12:17:44;;;;;;;17.35;3.00;;;10.40;71.40;;;;;;4972044;28;20054;-72
2020/12/01 12:20:10;;;;;;;17.15;4.75;;;10.30;71.70;;;;;;4973602;28;20053;-72
2020/12/01 12:22:36;;;;;;;32.13;4.75;;;10.10;72.50;;;;;;4971759;28;20458;-72
2020/12/01 12:25:02;;;;;;;20.77;4.38;;;10.10;73.80;;;;;;4984802;28;20039;-73
2020/12/01 12:27:28;;;;;;;19.23;5.32;;;10.20;73.00;;;;;;4993724;28;20137;-75
2020/12/01 12:29:54;;;;;;;30.67;8.77;;;10.30;72.20;;;;;;4990996;28;20091;-73
2020/12/01 12:32:20;;;;;;;27.83;8.93;;;10.30;71.80;;;;;;4972721;28;20121;-72
2020/12/01 12:34:46;;;;;;;29.20;10.68;;;10.30;71.60;;;;;;4998509;28;20046;-78
2020/12/01 12:37:11;;;;;;;28.17;9.05;;;10.40;69.90;;;;;;4996781;28;20431;-73
2020/12/01 12:39:37;;;;;;;25.42;9.50;;;10.50;70.80;;;;;;4996522;28;20048;-72
2020/12/01 12:42:03;;;;;;;22.77;7.32;;;10.50;70.50;;;;;;4992502;28;20985;-74
2020/12/01 12:44:29;;;;;;;22.42;5.00;;;10.50;70.90;;;;;;5019170;28;20433;-72
2020/12/01 12:46:54;;;;;;;21.20;4.38;;;10.50;70.90;;;;;;5021747;28;20043;-73
2020/12/01 12:49:20;;;;;;;16.77;3.63;;;10.60;70.20;;;;;;4988014;28;20039;-73
2020/12/01 12:51:46;;;;;;;20.08;4.13;;;10.60;70.20;;;;;;4983261;28;20474;-74
2020/12/01 12:54:11;;;;;;;19.02;3.65;;;10.60;69.00;;;;;;4979339;28;20038;-72
2020/12/01 12:56:37;;;;;;;20.98;4.28;;;10.60;69.60;;;;;;4976052;28;20038;-72
2020/12/01 12:59:03;;;;;;;17.52;4.40;;;10.60;69.80;;;;;;4977651;28;20054;-73
2020/12/01 13:01:28;;;;;;;15.88;3.92;;;10.60;70.20;;;;;;4987873;28;20436;-72
2020/12/01 13:03:54;;;;;;;23.98;4.25;;;10.60;70.60;;;;;;4975134;28;20042;-73
2020/12/01 13:06:20;;;;;;;20.65;4.95;;;10.60;71.10;;;;;;4976644;28;21006;-73
2020/12/01 13:08:46;;;;;;;18.95;4.40;;;10.60;71.70;;;;;;4999718;28;20087;-74
2020/12/01 13:11:12;;;;;;;28.83;5.00;;;10.50;72.70;;;;;;4997130;28;20047;-73
2020/12/01 13:13:38;;;;;;;21.42;4.63;;;10.50;72.60;;;;;;4982002;28;20205;-74
2020/12/01 13:16:04;;;;;;;24.40;4.90;;;10.50;73.50;;;;;;5015064;28;20031;-74
2020/12/01 13:18:30;;;;;;;23.52;4.60;;;10.50;73.60;;;;;;4979244;28;20035;-72
2020/12/01 13:20:56;;;;;;;26.02;5.45;;;10.40;74.10;;;;;;4973991;28;20039;-72
2020/12/01 13:23:22;;;;;;;21.40;4.60;;;10.40;74.00;;;;;;4970844;28;20395;-81
2020/12/01 13:25:47;;;;;;;29.52;5.03;;;10.40;74.00;;;;;;4990881;28;20134;-74
2020/12/01 13:28:13;;;;;;;20.45;4.30;;;10.50;73.70;;;;;;4965680;28;20386;-79
2020/12/01 13:30:38;;;;;;;28.50;4.38;;;10.40;73.70;;;;;;4983524;28;20398;-78
2020/12/01 13:33:04;;;;;;;24.45;4.28;;;10.50;73.20;;;;;;5000042;28;20489;-73
2020/12/01 13:35:30;;;;;;;17.83;4.57;;;10.40;73.40;;;;;;5005112;28;20034;-75
2020/12/01 13:37:55;;;;;;;19.52;4.45;;;10.40;73.30;;;;;;4994359;28;20027;-78
2020/12/01 13:40:23;;;;;;;20.67;4.07;;;10.40;72.90;;;;;;4974516;28;20444;-75
2020/12/01 13:42:49;;;;;;;29.17;6.22;;;10.50;71.90;;;;;;4977764;28;20072;-75
2020/12/01 13:45:15;;;;;;;25.98;6.03;;;10.40;71.80;;;;;;4985432;28;20031;-77
2020/12/01 13:47:43;;;;;;;23.70;4.57;;;10.40;71.30;;;;;;4997138;28;20526;-76
2020/12/01 13:50:14;;;;;;;19.42;4.47;;;10.40;70.80;;;;;;4970747;28;20404;-73
2020/12/01 13:52:40;;;;;;;24.73;5.30;;;10.50;70.90;;;;;;4998693;28;20100;-73